createdAt,value
2019-01-09T00:01:14.804Z,2.96
2019-01-09T00:06:19.033Z,2.95
2019-01-09T00:16:52.161Z,2.87
2019-01-09T00:21:57.485Z,2.85
2019-01-09T00:32:19.232Z,2.94
2019-01-09T00:58:22.780Z,2.87
2019-01-09T01:04:05.207Z,2.83
2019-01-09T01:09:47.477Z,2.86
2019-01-09T01:33:06.566Z,2.76
2019-01-09T01:44:40.932Z,2.71
2019-01-09T01:50:23.296Z,2.73
2019-01-09T01:56:05.587Z,2.69
2019-01-09T02:01:47.859Z,2.68
2019-01-09T02:07:37.462Z,2.69
2019-01-09T02:13:19.746Z,2.76
2019-01-09T02:24:53.781Z,2.78
2019-01-09T02:30:36.181Z,2.79
2019-01-09T02:35:40.443Z,2.80
2019-01-09T02:40:44.671Z,2.75
2019-01-09T02:45:49.178Z,2.78
2019-01-09T02:51:12.461Z,2.79
2019-01-09T03:06:35.448Z,2.70
2019-01-09T03:11:51.477Z,2.71
2019-01-09T03:27:34.361Z,2.62
2019-01-09T03:32:38.591Z,2.49
2019-01-09T03:43:11.557Z,2.48
2019-01-09T03:48:15.780Z,2.49
2019-01-09T03:53:20.444Z,2.46
2019-01-09T04:03:34.717Z,2.41
2019-01-09T04:13:48.533Z,2.51
2019-01-09T04:24:03.472Z,2.21
2019-01-09T04:44:37.026Z,2.16
2019-01-09T04:49:41.254Z,2.20
2019-01-09T04:55:04.687Z,2.18
2019-01-09T05:00:27.971Z,2.12
2019-01-09T05:05:32.201Z,2.13
2019-01-09T05:10:55.497Z,2.16
2019-01-09T05:15:59.789Z,2.14
2019-01-09T05:21:04.015Z,1.96
2019-01-09T05:26:27.310Z,1.87
2019-01-09T05:31:50.527Z,1.72
2019-01-09T05:36:55.295Z,1.70
2019-01-09T05:42:18.668Z,1.73
2019-01-09T05:47:23.203Z,1.81
2019-01-09T05:52:27.429Z,1.74
2019-01-09T05:57:50.737Z,1.82
2019-01-09T06:02:54.972Z,1.76
2019-01-09T06:07:59.208Z,1.78
2019-01-09T06:13:03.515Z,1.71
2019-01-09T06:18:19.575Z,1.67
2019-01-09T06:23:42.860Z,1.61
2019-01-09T06:33:57.080Z,1.58
2019-01-09T06:39:20.380Z,1.56
2019-01-09T06:55:22.577Z,1.60
2019-01-09T07:00:26.784Z,1.56
2019-01-09T07:05:31.093Z,1.54
2019-01-09T07:15:45.176Z,1.53
2019-01-09T07:21:01.879Z,1.56
2019-01-09T07:26:06.166Z,1.52
2019-01-09T07:31:10.396Z,1.51
2019-01-09T07:36:33.701Z,1.51
2019-01-09T07:41:38.067Z,1.54
2019-01-09T07:47:01.367Z,1.52
2019-01-09T07:52:24.789Z,1.55
2019-01-09T07:57:29.051Z,1.57
2019-01-09T08:02:52.359Z,1.55
2019-01-09T08:13:25.703Z,1.59
2019-01-09T08:24:10.881Z,1.51
2019-01-09T08:29:15.160Z,1.65
2019-01-09T08:34:19.745Z,1.80
2019-01-09T08:39:24.080Z,1.83
2019-01-09T08:44:28.571Z,1.84
2019-01-09T08:49:33.136Z,1.80
2019-01-09T08:54:37.500Z,1.84
2019-01-09T08:59:41.830Z,1.84
2019-01-09T09:04:46.055Z,2.00
2019-01-09T09:09:50.293Z,1.98
2019-01-09T09:14:54.654Z,2.18
2019-01-09T09:19:58.977Z,2.22
2019-01-09T09:25:03.351Z,2.31
2019-01-09T09:30:08.388Z,2.30
2019-01-09T09:35:12.732Z,2.40
2019-01-09T09:40:19.824Z,2.41
2019-01-09T09:45:24.449Z,2.35
2019-01-09T09:50:29.202Z,2.28
2019-01-09T09:55:33.568Z,2.37
2019-01-09T10:00:37.948Z,2.55
2019-01-09T10:05:42.292Z,2.50
2019-01-09T10:10:46.631Z,2.45
2019-01-09T10:16:09.940Z,2.46
2019-01-09T10:21:33.241Z,2.48
2019-01-09T10:26:37.544Z,2.55
2019-01-09T10:32:00.856Z,2.66
2019-01-09T10:37:44.777Z,2.72
2019-01-09T10:48:37.804Z,3.03
2019-01-09T10:53:42.037Z,2.93
2019-01-09T10:58:46.281Z,2.97
2019-01-09T11:03:50.612Z,3.02
2019-01-09T11:08:54.901Z,3.09
2019-01-09T11:13:59.139Z,3.08
2019-01-09T11:24:33.836Z,3.22
2019-01-09T11:34:48.499Z,3.20
2019-01-09T11:39:52.781Z,3.25
2019-01-09T11:44:57.259Z,3.27
2019-01-09T11:55:51.892Z,3.88
2019-01-09T12:00:56.317Z,4.35
2019-01-09T12:06:00.653Z,3.89
2019-01-09T12:11:44.249Z,4.32
2019-01-09T12:17:08.483Z,4.26
2019-01-09T12:22:31.855Z,4.00
2019-01-09T12:27:55.181Z,3.73
2019-01-09T12:33:38.866Z,3.83
2019-01-09T12:44:12.353Z,3.78
2019-01-09T12:49:35.740Z,3.81
2019-01-09T13:05:44.015Z,3.27
2019-01-09T13:11:07.317Z,3.20
2019-01-09T13:31:59.901Z,3.17
2019-01-09T13:37:15.600Z,3.15
2019-01-09T13:47:48.438Z,3.11
2019-01-09T13:52:52.947Z,3.03
2019-01-09T13:57:57.269Z,3.10
2019-01-09T14:03:20.977Z,3.09
2019-01-09T14:09:04.677Z,3.07
2019-01-09T14:19:38.033Z,3.07
2019-01-09T14:30:52.694Z,3.07
2019-01-09T14:35:58.700Z,3.00
2019-01-09T14:41:14.645Z,2.96
2019-01-09T14:58:33.376Z,2.84
2019-01-09T15:03:56.753Z,2.81
2019-01-09T15:14:29.728Z,2.72
2019-01-09T15:19:53.017Z,2.67
2019-01-09T15:24:57.344Z,2.64
2019-01-09T15:36:11.376Z,2.44
2019-01-09T15:41:15.651Z,2.28
2019-01-09T15:58:21.705Z,2.02
2019-01-09T16:03:25.921Z,1.99
2019-01-09T16:08:30.483Z,1.98
2019-01-09T16:13:34.716Z,2.08
2019-01-09T16:18:58.466Z,2.02
2019-01-09T16:24:21.762Z,2.02
2019-01-09T16:34:55.048Z,1.92
2019-01-09T16:40:23.255Z,1.95
2019-01-09T16:51:05.047Z,1.99
2019-01-09T17:01:39.516Z,1.98
2019-01-09T17:12:33.468Z,1.97
2019-01-09T17:17:37.713Z,1.99
2019-01-09T17:28:11.260Z,2.01
2019-01-09T17:33:56.222Z,1.99
2019-01-09T17:39:00.577Z,1.99
2019-01-09T17:44:05.333Z,1.98
2019-01-09T17:49:09.546Z,1.97
2019-01-09T17:54:13.881Z,1.95
2019-01-09T17:59:18.294Z,1.95
2019-01-09T18:04:22.773Z,1.95
2019-01-09T18:09:27.010Z,1.92
2019-01-09T18:14:37.006Z,1.92
2019-01-09T18:19:41.710Z,1.93
2019-01-09T18:24:46.205Z,1.87
2019-01-09T18:29:50.802Z,1.87
2019-01-09T18:35:23.884Z,1.86
2019-01-09T18:41:13.277Z,1.83
2019-01-09T18:46:29.185Z,1.84
2019-01-09T18:52:07.436Z,1.83
2019-01-09T18:57:11.696Z,1.83
2019-01-09T19:02:16.009Z,1.78
2019-01-09T19:07:20.375Z,1.79
2019-01-09T19:12:24.596Z,1.80
2019-01-09T19:17:28.928Z,1.81
2019-01-09T19:22:33.263Z,1.81
2019-01-09T19:27:37.835Z,1.80
2019-01-09T19:32:42.067Z,1.80
2019-01-09T19:37:47.430Z,1.78
2019-01-09T19:42:51.662Z,1.76
2019-01-09T19:47:56.083Z,1.73
2019-01-09T19:53:19.986Z,1.67
2019-01-09T19:58:36.604Z,1.61
2019-01-09T20:03:52.270Z,1.57
2019-01-09T20:19:36.913Z,1.52
2019-01-09T20:25:00.353Z,1.50
2019-01-09T20:30:46.260Z,1.46
2019-01-09T20:41:38.091Z,1.42
2019-01-09T20:47:01.774Z,1.38
2019-01-09T21:02:51.518Z,1.40
2019-01-09T21:08:35.225Z,1.40
2019-01-09T21:14:19.113Z,1.40
2019-01-09T21:29:43.952Z,1.37
2019-01-09T21:35:08.000Z,1.36
2019-01-09T21:40:53.267Z,1.35
2019-01-09T21:45:57.579Z,1.31
2019-01-09T21:51:21.250Z,1.39
2019-01-09T22:07:36.740Z,1.36
2019-01-09T22:12:55.931Z,1.31
2019-01-09T22:18:00.268Z,1.36
2019-01-09T22:28:34.515Z,1.35
2019-01-09T22:39:47.677Z,1.34
2019-01-09T22:45:11.393Z,1.31
2019-01-09T22:50:56.225Z,1.27
2019-01-09T23:02:10.231Z,1.27
2019-01-09T23:07:14.917Z,1.28
2019-01-09T23:12:31.464Z,1.22
2019-01-09T23:18:15.255Z,1.22
2019-01-09T23:29:29.521Z,1.18
2019-01-09T23:46:17.390Z,0.81
2019-01-09T23:56:51.267Z,0.90
